Time;durP1;ratioP1;P1;durP2;ratioP2;P2;SDS_P1;SDS_P2;PMS_P1;PMS_P2;Temp;Humidity;BMP_temperature;BMP_pressure;BME280_temperature;BME280_humidity;BME280_pressure;Samples;Min_cycle;Max_cycle;Signal;HPM_P1;HPM_P2
2023/07/29 00:00:13;;;;;;;4.32;2.50;;;;;;;18.41;100.00;99222.22;12209916;19;19914;-80
2023/07/29 00:04:15;;;;;;;4.45;2.47;;;;;;;18.45;100.00;99211.25;12229810;19;20033;-80
2023/07/29 00:08:16;;;;;;;3.40;2.58;;;;;;;18.48;100.00;99201.41;12229941;19;20010;-79
2023/07/29 00:12:18;;;;;;;3.88;2.45;;;;;;;18.57;100.00;99205.91;12203113;19;20457;-80
2023/07/29 00:16:23;;;;;;;3.27;2.30;;;;;;;18.67;100.00;99194.47;12226759;19;20093;-80
2023/07/29 00:20:25;;;;;;;6.05;2.33;;;;;;;18.77;100.00;99189.81;12219929;19;20021;-80
2023/07/29 00:24:27;;;;;;;3.35;1.80;;;;;;;18.83;100.00;99189.38;12194230;19;20006;-80
2023/07/29 00:28:29;;;;;;;2.30;1.65;;;;;;;18.88;100.00;99188.41;12226825;19;20384;-80
2023/07/29 00:32:31;;;;;;;2.53;1.50;;;;;;;18.91;100.00;99190.53;12226822;19;20409;-80
2023/07/29 00:36:33;;;;;;;3.67;2.17;;;;;;;18.91;100.00;99168.22;12201311;19;20014;-80
2023/07/29 00:40:36;;;;;;;2.85;1.67;;;;;;;18.90;100.00;99169.38;12226290;19;20034;-81
2023/07/29 00:44:38;;;;;;;5.47;2.03;;;;;;;18.89;100.00;99160.16;12229561;19;20022;-81
2023/07/29 00:48:40;;;;;;;5.00;1.80;;;;;;;18.88;100.00;99152.09;12206271;19;20006;-81
2023/07/29 00:52:42;;;;;;;4.20;1.67;;;;;;;18.85;100.00;99161.13;12224248;19;20027;-80
2023/07/29 00:56:44;;;;;;;2.65;1.60;;;;;;;18.81;100.00;99160.94;12224143;19;20021;-80
2023/07/29 01:00:46;;;;;;;2.95;1.90;;;;;;;18.89;100.00;99153.78;12197244;19;20437;-81
2023/07/29 01:04:56;;;;;;;1.83;1.13;;;;;;;18.97;100.00;99155.75;12224318;19;20024;-81
2023/07/29 01:09:05;;;;;;;3.38;1.40;;;;;;;19.08;100.00;99143.16;12210383;19;20014;-80
2023/07/29 01:13:17;;;;;;;4.03;1.38;;;;;;;19.11;100.00;99138.91;12226471;19;20107;-80
2023/07/29 01:17:23;;;;;;;3.80;1.17;;;;;;;19.15;100.00;99139.06;12235087;19;20014;-80
2023/07/29 01:21:27;;;;;;;2.90;1.40;;;;;;;19.22;100.00;99142.25;12223719;19;20010;-81
2023/07/29 01:25:29;;;;;;;1.85;1.13;;;;;;;19.28;100.00;99146.53;12252742;19;20007;-81
2023/07/29 01:29:31;;;;;;;2.33;1.23;;;;;;;19.32;100.00;99150.31;12251397;19;20010;-81
2023/07/29 01:33:39;;;;;;;2.53;1.42;;;;;;;19.37;100.00;99138.19;12226543;19;20007;-82
2023/07/29 01:37:42;;;;;;;3.03;1.20;;;;;;;19.30;100.00;99147.00;12226542;19;20073;-81
2023/07/29 01:41:45;;;;;;;3.05;1.40;;;;;;;19.26;100.00;99137.66;12221898;19;20010;-81
2023/07/29 01:45:47;;;;;;;;;;;;;;;19.23;100.00;99132.69;12198351;19;20006;-83
2023/07/29 01:49:49;;;;;;;4.13;1.38;;;;;;;19.26;100.00;99132.06;12218104;19;19939;-82
2023/07/29 01:53:51;;;;;;;2.43;1.40;;;;;;;19.32;100.00;99112.03;12198153;19;20010;-82
2023/07/29 01:57:52;;;;;;;1.58;0.98;;;;;;;19.31;100.00;99115.16;12220621;19;20346;-80
2023/07/29 02:01:56;;;;;;;8.85;1.63;;;;;;;19.26;100.00;99107.72;12218976;19;20459;-82
2023/07/29 02:05:58;;;;;;;1.67;0.95;;;;;;;19.24;100.00;99109.19;12200460;19;20027;-82
2023/07/29 02:10:00;;;;;;;1.53;1.10;;;;;;;19.31;100.00;99118.75;12207497;19;20015;-81
2023/07/29 02:14:02;;;;;;;2.63;1.53;;;;;;;19.29;100.00;99100.69;12207012;19;20003;-83
2023/07/29 02:18:06;;;;;;;4.43;1.20;;;;;;;19.21;100.00;99105.09;12185262;19;20034;-83
2023/07/29 02:22:12;;;;;;;2.13;1.40;;;;;;;19.17;100.00;99097.69;12212534;19;20275;-82
2023/07/29 02:26:17;;;;;;;1.80;1.20;;;;;;;19.14;100.00;99104.75;12205408;19;20011;-83
2023/07/29 02:30:21;;;;;;;2.47;1.15;;;;;;;19.13;100.00;99100.31;12184258;19;20051;-83
2023/07/29 02:34:22;;;;;;;3.75;1.55;;;;;;;19.12;100.00;99104.25;12205343;19;20007;-84
2023/07/29 02:38:25;;;;;;;4.75;1.42;;;;;;;19.13;100.00;99103.94;12205647;19;20586;-83
2023/07/29 02:42:26;;;;;;;2.03;1.20;;;;;;;19.19;100.00;99092.63;12192868;19;20429;-83
2023/07/29 02:46:28;;;;;;;1.85;1.20;;;;;;;19.24;100.00;99104.44;12217425;19;20015;-82
2023/07/29 02:50:30;;;;;;;3.63;1.30;;;;;;;19.26;100.00;99101.34;12217066;19;20007;-82
2023/07/29 02:54:32;;;;;;;2.58;1.50;;;;;;;19.26;100.00;99092.94;12191150;19;20091;-83
2023/07/29 02:58:34;;;;;;;4.15;1.40;;;;;;;19.27;100.00;99092.59;12220450;19;20486;-82
2023/07/29 03:02:35;;;;;;;2.47;1.30;;;;;;;19.25;100.00;99094.09;12224067;19;20042;-82
2023/07/29 03:06:38;;;;;;;2.88;1.50;;;;;;;19.26;100.00;99084.56;12202291;19;20010;-81
2023/07/29 03:10:41;;;;;;;7.67;1.50;;;;;;;19.27;100.00;99075.84;12211480;19;20038;-81
2023/07/29 03:14:47;;;;;;;3.83;1.55;;;;;;;19.25;100.00;99078.16;12215186;19;20353;-82
2023/07/29 03:18:49;;;;;;;3.50;1.52;;;;;;;19.23;100.00;99062.88;12193848;19;20724;-82
2023/07/29 03:22:51;;;;;;;4.03;1.47;;;;;;;19.14;100.00;99060.06;12213570;19;20022;-82
2023/07/29 03:26:53;;;;;;;2.72;1.30;;;;;;;19.07;100.00;99054.97;12192550;19;20564;-81
2023/07/29 03:30:56;;;;;;;3.53;1.25;;;;;;;18.97;100.00;99063.63;12216058;19;20466;-82
2023/07/29 03:34:58;;;;;;;3.72;1.30;;;;;;;18.91;100.00;99062.13;12213029;19;20086;-82
2023/07/29 03:39:03;;;;;;;1.90;1.20;;;;;;;18.80;100.00;99056.03;12196269;19;20018;-81
2023/07/29 03:43:06;;;;;;;1.88;1.38;;;;;;;18.75;100.00;99058.97;12219241;19;20116;-80
2023/07/29 03:47:08;;;;;;;6.30;1.33;;;;;;;18.67;100.00;99057.75;12221827;19;20010;-81
2023/07/29 03:51:10;;;;;;;;;;;;;;;18.62;100.00;99060.69;12194619;19;20548;-82
2023/07/29 03:55:12;;;;;;;3.00;1.70;;;;;;;18.63;100.00;99053.97;12212943;19;20231;-81
2023/07/29 03:59:15;;;;;;;4.28;1.58;;;;;;;18.63;100.00;99062.31;12218661;19;20010;-82
2023/07/29 04:03:17;;;;;;;3.35;1.67;;;;;;;18.67;100.00;99057.75;12198603;19;20041;-81
2023/07/29 04:07:20;;;;;;;4.43;1.55;;;;;;;18.78;100.00;99054.72;12219888;19;20022;-80
2023/07/29 04:11:23;;;;;;;5.80;2.00;;;;;;;18.94;100.00;99055.91;12217263;19;20006;-81
2023/07/29 04:15:24;;;;;;;;;;;;;;;19.00;100.00;99060.19;12199870;19;20022;-81
2023/07/29 04:19:26;;;;;;;3.88;1.50;;;;;;;19.10;100.00;99048.72;12219178;19;19926;-81
2023/07/29 04:23:28;;;;;;;4.40;1.95;;;;;;;19.15;100.00;99047.75;12219879;19;20018;-81
2023/07/29 04:27:30;;;;;;;3.25;1.75;;;;;;;19.16;100.00;99041.03;12201260;19;20472;-81
2023/07/29 04:31:31;;;;;;;6.68;1.70;;;;;;;19.16;100.00;99051.38;12224702;19;20006;-81
2023/07/29 04:35:33;;;;;;;2.35;1.60;;;;;;;19.13;100.00;99052.84;12228972;19;20429;-81
2023/07/29 04:39:35;;;;;;;3.45;2.25;;;;;;;19.18;100.00;99049.06;12204246;19;20014;-81
2023/07/29 04:43:37;;;;;;;2.97;1.60;;;;;;;19.23;100.00;99055.31;12221313;19;20018;-81
2023/07/29 04:47:39;;;;;;;7.40;1.58;;;;;;;19.28;100.00;99044.00;12220544;19;20010;-82
2023/07/29 04:51:40;;;;;;;3.77;1.90;;;;;;;19.37;100.00;99040.41;12203848;19;20017;-82
2023/07/29 04:55:43;;;;;;;2.80;1.85;;;;;;;19.38;100.00;99042.84;12223630;19;20517;-81
2023/07/29 04:59:45;;;;;;;4.60;1.95;;;;;;;19.31;100.00;99045.31;12218784;19;20511;-81
2023/07/29 05:03:47;;;;;;;3.05;2.00;;;;;;;19.29;100.00;99056.81;12195169;19;20006;-82
2023/07/29 05:07:49;;;;;;;3.90;1.83;;;;;;;19.28;100.00;99048.75;12214763;19;20053;-82
2023/07/29 05:11:51;;;;;;;3.70;2.08;;;;;;;19.37;100.00;99051.56;12192975;19;20022;-81
2023/07/29 05:15:52;;;;;;;4.17;1.80;;;;;;;19.47;100.00;99038.09;12213387;19;20010;-81
2023/07/29 05:19:54;;;;;;;4.20;1.87;;;;;;;19.57;100.00;99043.38;12214799;19;20791;-81
2023/07/29 05:23:56;;;;;;;5.28;2.22;;;;;;;19.68;100.00;99048.66;12195540;19;20007;-80
2023/07/29 05:27:58;;;;;;;4.22;2.00;;;;;;;19.78;100.00;99051.09;12214957;19;20046;-81
2023/07/29 05:32:00;;;;;;;4.28;1.90;;;;;;;19.91;100.00;99066.09;12217183;19;20082;-81
2023/07/29 05:36:02;;;;;;;4.20;1.80;;;;;;;20.01;100.00;99069.34;12198610;19;20018;-80
2023/07/29 05:40:05;;;;;;;3.17;1.97;;;;;;;20.08;100.00;99073.63;12221754;19;20018;-81
2023/07/29 05:44:07;;;;;;;6.60;2.03;;;;;;;20.12;100.00;99060.63;12221302;19;20472;-81
2023/07/29 05:48:11;;;;;;;4.20;1.73;;;;;;;20.25;100.00;99059.59;12198685;19;20363;-81
2023/07/29 05:52:13;;;;;;;5.55;1.95;;;;;;;20.27;100.00;99060.09;12217627;19;20014;-81
2023/07/29 05:56:15;;;;;;;2.63;1.80;;;;;;;20.38;100.00;99069.78;12224601;19;20021;-82
2023/07/29 06:00:18;;;;;;;3.45;2.00;;;;;;;20.53;100.00;99084.44;12198995;19;20070;-81
2023/07/29 06:04:20;;;;;;;3.20;1.70;;;;;;;20.60;100.00;99082.75;12201072;19;20014;-80
2023/07/29 06:08:23;;;;;;;6.35;1.83;;;;;;;20.54;100.00;99084.09;12209083;19;20003;-81
2023/07/29 06:12:25;;;;;;;4.13;2.07;;;;;;;20.56;100.00;99073.38;12177947;19;20132;-82
2023/07/29 06:16:27;;;;;;;3.03;2.03;;;;;;;20.45;100.00;99078.47;12243822;19;20010;-81
2023/07/29 06:20:28;;;;;;;3.17;1.87;;;;;;;20.41;100.00;99088.72;12246097;19;20007;-82
2023/07/29 06:24:30;;;;;;;5.43;1.80;;;;;;;20.37;100.00;99096.09;12209063;19;20110;-81
2023/07/29 06:28:32;;;;;;;3.28;1.90;;;;;;;20.32;100.00;99082.31;12234894;19;20010;-81
2023/07/29 06:32:34;;;;;;;2.57;2.00;;;;;;;20.14;100.00;99078.72;12219006;19;20019;-80
2023/07/29 06:36:36;;;;;;;5.35;2.85;;;;;;;19.98;100.00;99097.97;12197662;19;20043;-82
2023/07/29 06:40:38;;;;;;;10.43;4.47;;;;;;;19.77;100.00;99085.81;12222276;19;20488;-83
2023/07/29 06:44:40;;;;;;;10.38;5.28;;;;;;;19.64;100.00;99084.78;12225737;19;20010;-82
2023/07/29 06:48:42;;;;;;;9.27;5.67;;;;;;;19.57;100.00;99099.25;12199106;19;20006;-82
2023/07/29 06:52:44;;;;;;;8.23;5.30;;;;;;;19.56;100.00;99082.81;12217229;19;20015;-82
2023/07/29 06:56:46;;;;;;;8.80;4.78;;;;;;;19.53;100.00;99089.88;12219877;19;20043;-82
2023/07/29 07:00:51;;;;;;;10.65;5.20;;;;;;;19.43;100.00;99103.34;12197092;19;20440;-83
2023/07/29 07:04:55;;;;;;;8.50;5.45;;;;;;;19.32;100.00;99117.59;12220150;19;20092;-83
2023/07/29 07:08:57;;;;;;;7.35;4.90;;;;;;;19.24;100.00;99118.41;12202703;19;20018;-83
2023/07/29 07:12:59;;;;;;;6.88;3.85;;;;;;;19.15;100.00;99111.16;12217474;19;20121;-83
2023/07/29 07:17:01;;;;;;;6.07;3.58;;;;;;;19.10;100.00;99099.00;12220742;19;20364;-83
2023/07/29 07:21:03;;;;;;;4.95;3.15;;;;;;;19.16;100.00;99076.50;12198960;19;20007;-84
2023/07/29 07:25:05;;;;;;;6.65;2.97;;;;;;;19.19;100.00;99075.84;12214249;19;20002;-83
2023/07/29 07:29:09;;;;;;;4.70;2.80;;;;;;;19.13;100.00;99103.94;12215601;19;20367;-84
2023/07/29 07:33:11;;;;;;;3.50;2.22;;;;;;;19.09;100.00;99105.72;12194154;19;20026;-83
2023/07/29 07:37:12;;;;;;;7.28;2.03;;;;;;;19.08;100.00;99112.44;12220019;19;20014;-84
2023/07/29 07:41:14;;;;;;;5.07;2.00;;;;;;;19.15;100.00;99131.50;12245583;19;20010;-84
2023/07/29 07:45:17;;;;;;;5.50;1.98;;;;;;;19.18;100.00;99127.25;12232938;19;20042;-84
2023/07/29 07:49:19;;;;;;;3.33;1.73;;;;;;;19.13;100.00;99119.88;12220385;19;20729;-84
2023/07/29 07:53:21;;;;;;;4.23;1.90;;;;;;;19.07;100.00;99143.50;12217014;19;20018;-84
2023/07/29 07:57:23;;;;;;;2.97;2.00;;;;;;;18.97;100.00;99139.00;12196310;19;20014;-85
2023/07/29 08:01:25;;;;;;;6.03;2.13;;;;;;;18.99;100.00;99139.50;12219028;19;20023;-83
2023/07/29 08:05:26;;;;;;;5.10;2.00;;;;;;;18.98;100.00;99135.09;12214719;19;20028;-84
2023/07/29 08:09:28;;;;;;;4.20;2.10;;;;;;;19.02;100.00;99133.28;12191159;19;20082;-84
2023/07/29 08:13:39;;;;;;;4.60;2.33;;;;;;;19.11;100.00;99136.13;12212204;19;20422;-84
2023/07/29 08:17:41;;;;;;;3.60;2.47;;;;;;;19.18;100.00;99130.06;12212727;19;20380;-83
2023/07/29 08:21:47;;;;;;;5.38;2.13;;;;;;;19.23;100.00;99127.94;12191751;19;20010;-84
2023/07/29 08:25:53;;;;;;;4.57;2.50;;;;;;;19.34;100.00;99128.47;12214881;19;20038;-83
2023/07/29 08:29:55;;;;;;;3.88;2.15;;;;;;;19.54;100.00;99139.03;12193255;19;20033;-84
2023/07/29 08:33:57;;;;;;;2.75;1.80;;;;;;;20.21;100.00;99148.97;12212276;19;20723;-83
2023/07/29 08:37:59;;;;;;;5.60;2.17;;;;;;;20.92;100.00;99140.13;12215887;19;20030;-84
2023/07/29 08:42:07;;;;;;;4.93;2.70;;;;;;;21.06;100.00;99145.50;12190825;19;20460;-83
2023/07/29 08:46:09;;;;;;;4.75;2.80;;;;;;;20.92;100.00;99154.13;12216332;19;20025;-83
2023/07/29 08:50:13;;;;;;;6.35;3.10;;;;;;;21.07;100.00;99146.34;12214908;19;20006;-84
2023/07/29 08:54:16;;;;;;;5.40;2.35;;;;;;;21.59;100.00;99146.94;12189084;19;20022;-85
2023/07/29 08:58:19;;;;;;;4.97;3.10;;;;;;;21.88;100.00;99147.22;12214649;19;20007;-82
2023/07/29 09:02:21;;;;;;;4.25;2.40;;;;;;;22.03;100.00;99138.19;12213157;19;20023;-83
2023/07/29 09:06:25;;;;;;;3.23;2.03;;;;;;;22.06;100.00;99143.91;12188993;19;20006;-83
2023/07/29 09:10:27;;;;;;;5.25;2.88;;;;;;;22.08;100.00;99147.22;12209375;19;20270;-83
2023/07/29 09:14:29;;;;;;;4.37;2.33;;;;;;;22.75;100.00;99142.47;12210968;19;20074;-83
2023/07/29 09:18:31;;;;;;;3.03;1.63;;;;;;;22.94;100.00;99149.53;12190817;19;20050;-82
2023/07/29 09:22:32;;;;;;;5.87;2.10;;;;;;;22.93;100.00;99156.31;12204898;19;20018;-83
2023/07/29 09:26:35;;;;;;;3.23;1.43;;;;;;;22.74;100.00;99163.28;12212169;19;20028;-81
2023/07/29 09:30:39;;;;;;;2.22;1.13;;;;;;;23.01;100.00;99165.84;12191325;19;20014;-81
2023/07/29 09:34:41;;;;;;;3.97;1.52;;;;;;;23.48;100.00;99157.78;12210237;19;20014;-82
2023/07/29 09:38:45;;;;;;;3.50;1.15;;;;;;;24.00;100.00;99159.84;12214236;19;20026;-82
2023/07/29 09:42:54;;;;;;;2.97;1.20;;;;;;;24.18;100.00;99154.75;12188894;19;20413;-81
2023/07/29 09:46:57;;;;;;;1.52;0.90;;;;;;;23.95;100.00;99171.38;12214058;19;20010;-81
2023/07/29 09:50:59;;;;;;;3.00;1.02;;;;;;;23.82;100.00;99159.31;12186840;19;20015;-80
2023/07/29 09:55:01;;;;;;;2.93;0.97;;;;;;;23.92;100.00;99155.19;12206976;19;20504;-81
2023/07/29 09:59:04;;;;;;;2.85;0.93;;;;;;;24.19;100.00;99133.91;12208519;19;20055;-80
2023/07/29 10:03:07;;;;;;;3.17;1.00;;;;;;;24.64;100.00;99134.78;12186413;19;20010;-81
2023/07/29 10:07:10;;;;;;;4.57;0.90;;;;;;;24.87;100.00;99132.19;12208892;19;20011;-81
2023/07/29 10:11:12;;;;;;;2.92;0.98;;;;;;;24.82;100.00;99122.00;12210573;19;20014;-81
2023/07/29 10:15:15;;;;;;;2.80;1.08;;;;;;;24.66;100.00;99126.78;12191977;19;20502;-80
2023/07/29 10:19:18;;;;;;;2.03;1.17;;;;;;;24.71;100.00;99118.06;12215729;19;20082;-81
2023/07/29 10:23:21;;;;;;;2.70;1.15;;;;;;;24.79;100.00;99125.53;12211716;19;20373;-80
2023/07/29 10:27:24;;;;;;;5.22;1.42;;;;;;;24.90;100.00;99126.63;12190417;19;20094;-79
2023/07/29 10:31:28;;;;;;;1.80;1.23;;;;;;;24.96;100.00;99133.66;12204186;19;20023;-80
2023/07/29 10:35:33;;;;;;;4.97;1.30;;;;;;;25.29;100.00;99126.03;12203741;19;20015;-80
2023/07/29 10:39:39;;;;;;;6.20;1.67;;;;;;;25.78;100.00;99123.56;12175014;19;20114;-80
2023/07/29 10:43:41;;;;;;;2.53;1.48;;;;;;;26.28;94.95;99110.56;12199116;19;20038;-81
2023/07/29 10:47:43;;;;;;;2.75;1.30;;;;;;;26.55;95.52;99105.06;12198903;19;20071;-81
2023/07/29 10:51:45;;;;;;;2.38;1.60;;;;;;;26.89;91.96;99096.78;12179046;19;20042;-80
2023/07/29 10:55:52;;;;;;;3.35;1.55;;;;;;;27.16;90.07;99077.91;12206934;19;20485;-82
2023/07/29 10:59:55;;;;;;;5.25;1.88;;;;;;;27.45;87.92;99070.69;12198626;19;20010;-81
2023/07/29 11:04:29;;;;;;;2.60;1.77;;;;;;;27.45;83.61;99073.50;12244546;19;20011;-82
2023/07/29 11:08:31;;;;;;;2.55;1.67;;;;;;;27.80;82.13;99080.91;12247647;19;20018;-82
2023/07/29 11:12:37;;;;;;;;;;;;;;;28.22;79.42;99068.50;12227286;19;20018;-82
2023/07/29 11:16:38;;;;;;;5.45;1.75;;;;;;;28.10;78.84;99063.91;12220104;19;19918;-82
2023/07/29 11:20:40;;;;;;;3.53;1.83;;;;;;;28.28;76.49;99061.28;12219381;19;20015;-83
2023/07/29 11:24:42;;;;;;;3.35;1.70;;;;;;;28.51;70.54;99059.16;12216291;19;20006;-83
2023/07/29 11:28:46;;;;;;;2.38;1.80;;;;;;;28.51;70.46;99055.50;12241751;19;20732;-83
2023/07/29 11:32:47;;;;;;;3.75;1.88;;;;;;;28.51;70.58;99052.66;12221901;19;20007;-83
2023/07/29 11:36:49;;;;;;;1.95;1.70;;;;;;;28.54;68.57;99051.88;12196677;19;20007;-82
2023/07/29 11:41:09;;;;;;;3.00;1.77;;;;;;;28.07;69.10;99048.50;12217994;19;20006;-83
2023/07/29 11:45:12;;;;;;;2.75;1.50;;;;;;;27.18;70.74;99038.75;12199777;19;20014;-82
2023/07/29 11:49:18;;;;;;;2.95;2.00;;;;;;;26.67;76.63;99045.53;12212476;19;20408;-83
2023/07/29 11:53:20;;;;;;;4.80;1.80;;;;;;;27.80;73.15;99038.44;12215369;19;20024;-84
2023/07/29 11:57:23;;;;;;;4.35;1.88;;;;;;;29.24;66.10;99035.91;12196237;19;20015;-81
2023/07/29 12:01:25;;;;;;;2.72;1.80;;;;;;;29.01;63.97;99033.28;12220089;19;20377;-83
2023/07/29 12:05:28;;;;;;;3.50;1.90;;;;;;;29.37;56.77;99039.25;12210253;19;20034;-82
2023/07/29 12:09:30;;;;;;;4.47;2.13;;;;;;;29.72;49.65;99038.69;12184508;19;20028;-81
2023/07/29 12:13:33;;;;;;;3.70;1.50;;;;;;;30.59;48.48;99044.28;12207585;19;20062;-81
2023/07/29 12:17:40;;;;;;;4.55;1.63;;;;;;;30.41;46.43;99041.41;12210444;19;20124;-81
2023/07/29 12:21:42;;;;;;;3.80;1.92;;;;;;;30.12;46.81;99042.50;12192021;19;20485;-81
2023/07/29 12:25:44;;;;;;;2.60;1.60;;;;;;;31.46;44.42;99033.75;12210810;19;20094;-80
2023/07/29 12:29:48;;;;;;;;;;;;;;;31.77;43.83;99038.56;12209366;19;20684;-84
2023/07/29 12:33:58;;;;;;;3.58;1.48;;;;;;;31.97;40.88;99036.06;12181861;19;20147;-84
2023/07/29 12:38:00;;;;;;;3.28;1.48;;;;;;;31.57;41.00;99039.44;12210443;19;20014;-83
2023/07/29 12:42:03;;;;;;;2.47;1.50;;;;;;;30.81;41.30;99047.97;12205059;19;20026;-81
2023/07/29 12:46:05;;;;;;;4.97;1.80;;;;;;;30.60;39.65;99030.88;12188446;19;20010;-82
2023/07/29 12:50:07;;;;;;;;;;;;;;;30.82;39.90;99038.25;12209250;19;20022;-83
2023/07/29 12:54:09;;;;;;;3.17;1.75;;;;;;;32.07;37.77;99051.50;12206623;19;19930;-81
2023/07/29 12:58:11;;;;;;;3.15;1.35;;;;;;;32.48;37.26;99042.34;12189861;19;20023;-83
2023/07/29 13:02:13;;;;;;;5.43;1.70;;;;;;;31.33;37.17;99042.69;12214347;19;20022;-82
2023/07/29 13:06:15;;;;;;;2.45;1.45;;;;;;;32.31;36.89;99040.41;12195842;19;20007;-83
2023/07/29 13:10:17;;;;;;;1.98;1.38;;;;;;;33.25;35.66;99049.94;12209171;19;20010;-82
2023/07/29 13:14:19;;;;;;;2.28;1.42;;;;;;;33.78;31.17;99029.41;12232313;19;20023;-82
2023/07/29 13:18:21;;;;;;;1.85;1.30;;;;;;;33.79;31.32;99047.38;12189779;19;20074;-84
2023/07/29 13:22:23;;;;;;;3.20;1.60;;;;;;;34.36;29.58;99020.94;12211226;19;20017;-83
2023/07/29 13:26:25;;;;;;;3.60;1.50;;;;;;;34.35;29.10;99039.34;12221739;19;20006;-82
2023/07/29 13:30:27;;;;;;;2.95;1.70;;;;;;;33.94;29.09;99045.97;12191907;19;20020;-84
2023/07/29 13:34:29;;;;;;;2.78;1.58;;;;;;;34.05;29.58;99030.75;12211311;19;20013;-85
2023/07/29 13:38:30;;;;;;;2.40;1.35;;;;;;;34.89;29.96;99027.94;12215044;19;20015;-82
2023/07/29 13:42:32;;;;;;;2.30;1.80;;;;;;;34.47;29.04;99029.34;12197392;19;20010;-85
2023/07/29 13:46:34;;;;;;;2.60;1.70;;;;;;;34.72;29.45;99029.03;12211929;19;20023;-84
2023/07/29 13:50:37;;;;;;;2.28;1.50;;;;;;;35.66;28.39;99013.91;12207499;19;20023;-83
2023/07/29 13:54:39;;;;;;;2.33;1.55;;;;;;;36.52;27.57;99021.53;12178436;19;21117;-83
2023/07/29 13:58:41;;;;;;;3.28;1.70;;;;;;;34.58;29.01;99037.81;12210106;19;20023;-83
2023/07/29 14:02:43;;;;;;;2.08;1.48;;;;;;;34.49;30.08;99033.41;12210366;19;20006;-84
2023/07/29 14:06:45;;;;;;;2.85;1.38;;;;;;;35.42;29.02;99030.31;12189506;19;20413;-83
2023/07/29 14:10:53;;;;;;;3.05;1.50;;;;;;;33.85;30.82;99034.22;12201695;19;20017;-83
2023/07/29 14:14:55;;;;;;;2.38;1.52;;;;;;;31.84;33.81;99036.91;12207168;19;20006;-83
2023/07/29 14:18:56;;;;;;;2.78;1.60;;;;;;;30.55;36.67;99054.00;12181879;19;20422;-82
2023/07/29 14:22:58;;;;;;;;;;;;;;;29.60;37.60;99042.66;12199435;19;20029;-83
2023/07/29 14:27:00;;;;;;;5.30;1.33;;;;;;;29.28;39.13;99054.59;12209261;19;19923;-84
2023/07/29 14:31:02;;;;;;;4.45;1.50;;;;;;;28.70;40.04;99062.97;12187198;19;20264;-82
2023/07/29 14:35:04;;;;;;;;;;;;;;;28.17;41.47;99056.31;12207689;19;20541;-85
2023/07/29 14:39:05;;;;;;;1.77;1.20;;;;;;;28.44;41.46;99061.91;12219935;19;19914;-83
2023/07/29 14:43:07;;;;;;;3.78;1.42;;;;;;;27.92;42.34;99055.19;12196653;19;20078;-82
2023/07/29 14:47:09;;;;;;;2.55;1.40;;;;;;;27.64;43.49;99049.94;12219670;19;20007;-81
2023/07/29 14:51:10;;;;;;;3.30;1.33;;;;;;;29.41;41.56;99046.56;12200168;19;20075;-83
2023/07/29 14:55:12;;;;;;;2.42;1.70;;;;;;;29.87;40.44;99050.94;12216542;19;20037;-82
2023/07/29 14:59:14;;;;;;;3.20;1.45;;;;;;;29.92;41.09;99059.84;12220331;19;20028;-82
2023/07/29 15:03:16;;;;;;;;;;;;;;;29.48;39.95;99040.16;12195198;19;20051;-82
2023/07/29 15:07:18;;;;;;;;;;;;;;;29.25;40.96;99038.38;12222903;19;19911;-83
2023/07/29 15:11:20;;;;;;;2.20;1.25;;;;;;;29.09;41.93;99049.16;12222744;19;19914;-82
2023/07/29 15:15:22;;;;;;;1.73;1.20;;;;;;;29.37;42.59;99036.41;12213651;19;20011;-83
2023/07/29 15:19:24;;;;;;;1.75;1.27;;;;;;;29.94;41.97;99036.75;12245441;19;20024;-83
2023/07/29 15:23:26;;;;;;;;;;;;;;;30.13;39.89;99030.75;12240699;19;20014;-80
2023/07/29 15:27:28;;;;;;;4.20;1.53;;;;;;;29.73;41.11;99049.63;12230680;19;19926;-82
2023/07/29 15:31:30;;;;;;;4.97;1.30;;;;;;;29.26;42.19;99033.50;12249172;19;20011;-82
2023/07/29 15:35:38;;;;;;;3.30;1.58;;;;;;;28.85;44.48;99027.88;12249178;19;20035;-81
2023/07/29 15:39:41;;;;;;;2.42;1.45;;;;;;;28.56;44.66;99019.13;12242770;19;20481;-82
2023/07/29 15:43:43;;;;;;;2.00;1.42;;;;;;;28.43;44.75;99034.75;12261100;19;20014;-81
2023/07/29 15:47:45;;;;;;;2.03;1.60;;;;;;;28.52;44.80;99032.44;12264821;19;20010;-82
2023/07/29 15:51:47;;;;;;;3.53;1.35;;;;;;;29.02;43.51;99029.25;12241305;19;20401;-81
2023/07/29 15:55:50;;;;;;;2.33;1.42;;;;;;;28.81;43.39;99029.88;12255643;19;20018;-82
2023/07/29 15:59:52;;;;;;;2.55;1.38;;;;;;;28.55;46.12;99040.16;12252579;19;20015;-82
2023/07/29 16:03:55;;;;;;;3.35;1.42;;;;;;;28.23;46.08;99025.63;12218376;19;20036;-81
2023/07/29 16:07:57;;;;;;;2.97;1.20;;;;;;;28.16;46.40;99029.19;12252143;19;20010;-81
2023/07/29 16:12:01;;;;;;;2.67;1.75;;;;;;;27.84;46.58;99030.81;12244436;19;20018;-81
2023/07/29 16:16:03;;;;;;;3.30;1.30;;;;;;;27.72;47.65;99029.84;12216060;19;20070;-81
2023/07/29 16:20:06;;;;;;;;;;;;;;;27.65;47.14;99031.75;12234163;19;20357;-82
2023/07/29 16:24:08;;;;;;;1.98;1.25;;;;;;;27.71;47.04;99030.22;12238367;19;19921;-83
2023/07/29 16:28:10;;;;;;;3.10;1.60;;;;;;;27.65;47.89;99031.75;12215314;19;20006;-80
2023/07/29 16:32:12;;;;;;;3.42;1.50;;;;;;;27.36;46.89;99027.69;12232341;19;20099;-79
2023/07/29 16:36:14;;;;;;;3.10;1.35;;;;;;;26.92;47.82;99036.66;12218527;19;20803;-79
2023/07/29 16:40:16;;;;;;;3.67;1.40;;;;;;;26.65;49.06;99039.44;12229279;19;20022;-81
2023/07/29 16:44:18;;;;;;;;;;;;;;;26.80;49.62;99034.84;12238323;19;20010;-82
2023/07/29 16:48:19;;;;;;;3.10;1.30;;;;;;;26.90;48.86;99041.91;12208093;19;19942;-81
2023/07/29 16:52:21;;;;;;;2.33;1.30;;;;;;;26.85;49.29;99042.22;12229419;19;20018;-80
2023/07/29 16:56:24;;;;;;;4.00;1.48;;;;;;;26.88;49.74;99030.97;12230086;19;20019;-80
2023/07/29 17:00:25;;;;;;;2.95;1.52;;;;;;;26.87;49.59;99042.66;12207734;19;20014;-80
2023/07/29 17:04:27;;;;;;;3.78;1.48;;;;;;;26.97;50.04;99033.53;12226231;19;20011;-80
2023/07/29 17:08:29;;;;;;;2.80;1.15;;;;;;;26.87;49.15;99043.47;12225643;19;20011;-81
2023/07/29 17:12:32;;;;;;;3.25;1.40;;;;;;;26.81;49.65;99048.63;12202180;19;20024;-80
2023/07/29 17:16:33;;;;;;;2.28;1.00;;;;;;;26.76;48.74;99045.28;12227669;19;20021;-80
2023/07/29 17:20:36;;;;;;;2.10;1.23;;;;;;;26.46;49.19;99042.31;12220496;19;20020;-81
2023/07/29 17:24:37;;;;;;;3.92;1.30;;;;;;;26.21;49.94;99053.94;12205584;19;20020;-80
2023/07/29 17:28:39;;;;;;;2.92;1.35;;;;;;;26.00;50.13;99050.66;12229299;19;20030;-81
2023/07/29 17:32:41;;;;;;;2.08;1.02;;;;;;;25.91;50.75;99046.09;12228977;19;20495;-81
2023/07/29 17:36:43;;;;;;;1.90;1.10;;;;;;;25.75;50.76;99048.09;12204518;19;20351;-81
2023/07/29 17:40:49;;;;;;;3.70;1.42;;;;;;;25.68;51.74;99042.31;12222605;19;20861;-81
2023/07/29 17:44:50;;;;;;;4.53;1.80;;;;;;;25.62;52.25;99052.28;12224985;19;20003;-80
2023/07/29 17:48:52;;;;;;;3.63;1.38;;;;;;;25.46;52.18;99041.84;12205017;19;20010;-80
2023/07/29 17:52:55;;;;;;;2.40;1.27;;;;;;;25.41;54.21;99050.59;12233067;19;20014;-80
2023/07/29 17:57:03;;;;;;;3.72;1.58;;;;;;;25.40;54.04;99046.16;12223941;19;20006;-80
2023/07/29 18:01:05;;;;;;;3.25;1.77;;;;;;;25.49;53.91;99047.94;12199125;19;20025;-80
2023/07/29 18:05:07;;;;;;;2.90;1.80;;;;;;;25.56;54.02;99050.94;12219295;19;20013;-80
2023/07/29 18:09:09;;;;;;;2.60;1.55;;;;;;;25.63;54.09;99051.88;12220086;19;20081;-81
2023/07/29 18:13:11;;;;;;;4.35;1.40;;;;;;;25.64;54.03;99047.91;12198937;19;20030;-81
2023/07/29 18:17:13;;;;;;;2.92;1.52;;;;;;;25.66;54.31;99050.34;12223326;19;20027;-81
2023/07/29 18:21:15;;;;;;;2.42;1.52;;;;;;;25.61;54.75;99059.06;12197852;19;20025;-81
2023/07/29 18:25:17;;;;;;;1.90;1.30;;;;;;;25.42;55.22;99057.88;12204515;19;20362;-80
2023/07/29 18:29:19;;;;;;;3.07;1.50;;;;;;;25.27;55.48;99053.06;12213239;19;20064;-81
2023/07/29 18:33:21;;;;;;;4.55;1.75;;;;;;;25.11;56.20;99058.72;12184796;19;20263;-81
2023/07/29 18:37:23;;;;;;;3.35;1.60;;;;;;;24.98;56.69;99057.97;12207380;19;20023;-81
2023/07/29 18:41:26;;;;;;;4.10;1.50;;;;;;;24.89;59.19;99074.25;12213174;19;20031;-81
2023/07/29 18:45:32;;;;;;;3.15;1.70;;;;;;;24.74;63.57;99077.91;12189114;19;20023;-81